Airfield :
LOGIN :

Register | Disclaimer

   EN    FR    IT 

 










Legend :    VFR   Marginal VFR   IFR   Intensive IFR   Very Intensive IFR
Visi :
Ceiling :
>= 8 km
>= 3000ft
5 to 8 km
1000 to 3000 ft
1500m to 5 km
500 to 1000 ft
800 to 1500m
200 to 500 ft
< 800m
< 200 ft
Symbols :   Thunderstorms  Fog  Heavy snow  Heavy precipitations  Wind > 20 kt
SIGMETs :     Misc.  Thunderstorms  Icing  Turbulence  Mountain Waves  Volcanic Ashes






- Airport Elevation : 171 ft
- IATA code : EGC


LFBE - Bergerac

CURRENT METAR :
  • 261200Z AUTO 26005KT 220V300 9999 BKN034/// BKN040/// BKN050/// ///CB 22/16 Q1019 TEMPO 4000 SHRA BKN012 BKN020TCU

EXPIRED METARs :
  • 261130Z AUTO 24004KT 170V310 9999 FEW029/// SCT047/// BKN096/// ///CB 23/15 Q1019 TEMPO 4000 SHRA BKN012 BKN020TCU
  • 261100Z AUTO 26006KT 230V290 9999 FEW022/// SCT030/// ///CB 21/16 Q1020 TEMPO 4000 SHRA BKN012 BKN020TCU
  • 261030Z AUTO 26005KT 190V330 9999 4200 BKN021 BKN026 22/17 Q1020 TEMPO 4000 SHRA BKN012 BKN020TCU
  • 261000Z AUTO VRB04KT 9999 BKN015 21/17 Q1020 NOSIG
  • 260930Z AUTO 19003KT 110V230 9999 BKN012 20/17 Q1020 BECMG NSC

TAF AMD TAF LFBE
Valid from the 26 at 12:00 until the 27 at 12:00 UTC


261214Z 2612/2712 25008KT 9999 BKN030
TEMPO 2612/2615 4000 SHRA BKN020TCU
PROB30
TEMPO 2612/2614 BKN012 SCT020CB
PROB30
TEMPO 2702/2706 3000 MIFG



MET'MAP, your aeronautical weather chart ! - Copyright ORBIFLY December 2007 - Disclaimer

ORBIFLY MET'MAP TEAM :

Programming & Development : Alexandra Zaïnal
Concept & original design : Baudouin d'Aumeries
Assistance for programming : Marc-Olivier Méhu
Technical & hardware support : Manuel Goepfert

Contact : metmap@orbifly.com




SOURCES & CREDITS :

   NOAA